Time;durP1;ratioP1;P1;durP2;ratioP2;P2;SDS_P1;SDS_P2;PMS_P1;PMS_P2;Temp;Humidity;BMP_temperature;BMP_pressure;BME280_temperature;BME280_humidity;BME280_pressure;Samples;Min_cycle;Max_cycle;Signal;HPM_P1;HPM_P2
2021/12/18 00:01:52;;;;;;;6.10;2.70;;;;;;;2.66;81.25;100842.76;125292;1102;104176;-80
2021/12/18 00:04:22;;;;;;;6.00;2.93;;;;;;;2.66;81.48;100850.53;125295;1102;104650;-80
2021/12/18 00:06:55;;;;;;;7.83;3.00;;;;;;;2.68;81.25;100858.41;125293;1102;104300;-80
2021/12/18 00:09:28;;;;;;;8.90;2.90;;;;;;;2.69;81.60;100855.05;125302;1102;104155;-80
2021/12/18 00:11:57;;;;;;;6.13;2.80;;;;;;;2.68;81.32;100861.01;125309;1102;104220;-80
2021/12/18 00:14:25;;;;;;;7.13;3.27;;;;;;;2.68;81.50;100858.41;125295;1102;104159;-80
2021/12/18 00:16:55;;;;;;;5.83;3.10;;;;;;;2.68;81.73;100861.93;125324;1102;104235;-80
2021/12/18 00:19:26;;;;;;;5.80;2.73;;;;;;;2.68;81.32;100856.75;125264;1102;104211;-80
2021/12/18 00:22:03;;;;;;;6.60;3.20;;;;;;;2.67;81.70;100857.52;125247;1102;104165;-80
2021/12/18 00:24:35;;;;;;;9.07;3.30;;;;;;;2.69;81.06;100855.05;125256;1102;117822;-80
2021/12/18 00:27:07;;;;;;;5.80;2.97;;;;;;;2.68;81.82;100854.16;125339;1102;104210;-80
2021/12/18 00:29:40;;;;;;;6.53;2.90;;;;;;;2.69;81.28;100866.30;125280;1102;104201;-80
2021/12/18 00:32:17;;;;;;;6.43;2.93;;;;;;;2.69;81.55;100870.59;126283;1099;104157;-81
2021/12/18 00:34:59;;;;;;;7.00;2.70;;;;;;;2.68;81.70;100868.78;126335;1099;104152;-80
2021/12/18 00:37:40;;;;;;;6.20;3.00;;;;;;;2.68;80.96;100867.11;126293;1099;104293;-80
2021/12/18 00:40:30;;;;;;;8.13;2.90;;;;;;;2.68;81.74;100871.37;126328;1099;104213;-80
2021/12/18 00:43:13;;;;;;;6.10;3.07;;;;;;;2.67;81.73;100867.89;125363;1099;104287;-81
2021/12/18 00:45:43;;;;;;;7.70;3.03;;;;;;;2.68;81.42;100873.96;126339;1099;104229;-79
2021/12/18 00:48:16;;;;;;;7.23;2.90;;;;;;;2.67;82.05;100869.59;126321;1099;104159;-80
2021/12/18 00:51:02;;;;;;;4.78;2.80;;;;;;;2.67;81.78;100869.59;125379;1099;104264;-80
2021/12/18 00:53:34;;;;;;;5.47;2.97;;;;;;;2.66;81.56;100878.14;125549;1099;102909;-80
2021/12/18 00:56:25;;;;;;;6.03;2.90;;;;;;;2.65;81.89;100882.44;126309;1099;104233;-80
2021/12/18 00:59:03;;;;;;;5.83;2.57;;;;;;;2.64;81.96;100884.91;126322;1099;104198;-79
2021/12/18 01:01:40;;;;;;;5.72;3.15;;;;;;;2.64;81.97;100878.03;126312;1099;104255;-79
2021/12/18 01:04:08;;;;;;;6.80;2.80;;;;;;;2.63;81.82;100888.28;126321;1099;104278;-80
2021/12/18 01:06:38;;;;;;;6.87;3.17;;;;;;;2.63;81.14;100884.02;126301;1098;104230;-80
2021/12/18 01:09:06;;;;;;;7.03;3.27;;;;;;;2.63;81.67;100870.14;126349;1099;104177;-81
2021/12/18 01:11:42;;;;;;;10.17;2.80;;;;;;;2.65;81.46;100884.10;126342;1099;104201;-80
2021/12/18 01:14:39;;;;;;;5.23;2.90;;;;;;;2.65;81.65;100884.10;126255;1099;104159;-80
2021/12/18 01:23:40;;;;;;;6.03;2.80;;;;;;;2.64;82.00;100883.21;126245;1099;104210;-79
2021/12/18 01:26:09;;;;;;;5.87;2.87;;;;;;;2.63;81.00;100885.69;126246;1099;104173;-79
2021/12/18 01:28:39;;;;;;;7.17;3.00;;;;;;;2.62;81.06;100889.09;126329;1099;104754;-80
2021/12/18 01:31:10;;;;;;;7.20;3.03;;;;;;;2.64;81.44;100884.91;126313;1099;104185;-80
2021/12/18 01:33:39;;;;;;;8.57;3.13;;;;;;;2.64;81.15;100895.28;126239;1099;104153;-80
2021/12/18 01:36:09;;;;;;;6.47;3.07;;;;;;;2.63;81.50;100885.69;126366;1099;104150;-80
2021/12/18 01:38:38;;;;;;;6.07;2.90;;;;;;;2.63;81.38;100886.61;126308;1099;104281;-80
2021/12/18 01:41:06;;;;;;;6.73;3.10;;;;;;;2.62;81.16;100889.98;126343;1099;104216;-81
2021/12/18 01:46:44;;;;;;;9.47;2.90;;;;;;;2.61;81.58;100898.53;126314;1099;109580;-80
2021/12/18 01:52:17;;;;;;;6.30;2.80;;;;;;;2.60;80.82;100896.75;126319;1099;104229;-79
2021/12/18 01:54:47;;;;;;;6.80;3.07;;;;;;;2.61;81.09;100895.05;126287;1099;104278;-80
2021/12/18 01:57:16;;;;;;;7.83;2.97;;;;;;;2.62;81.03;100905.53;126308;1099;104319;-80
2021/12/18 01:59:48;;;;;;;5.07;2.60;;;;;;;2.63;81.23;100903.83;126278;1099;104303;-79
2021/12/18 02:02:20;;;;;;;6.97;2.93;;;;;;;2.63;81.04;100911.59;126351;1099;104300;-79
2021/12/18 02:04:49;;;;;;;4.47;2.80;;;;;;;2.62;81.15;100909.82;126313;1099;104637;-80
2021/12/18 02:07:18;;;;;;;8.00;3.57;;;;;;;2.61;81.41;100913.19;126371;1099;104278;-81
2021/12/18 02:10:01;;;;;;;6.70;3.30;;;;;;;2.60;80.50;100903.60;126339;1099;104168;-79
2021/12/18 02:12:40;;;;;;;4.43;2.80;;;;;;;2.58;81.53;100913.84;126306;1099;104306;-81
2021/12/18 02:20:47;;;;;;;6.17;2.93;;;;;;;2.61;80.98;100908.89;126344;1099;101733;-80
2021/12/18 02:23:18;;;;;;;5.83;2.80;;;;;;;2.62;81.94;100917.59;126319;1099;104160;-80
2021/12/18 02:25:49;;;;;;;5.97;2.90;;;;;;;2.62;81.55;100910.71;126178;1099;104152;-80
2021/12/18 02:28:23;;;;;;;6.70;2.80;;;;;;;2.62;81.02;100915.89;126323;1099;104229;-80
2021/12/18 02:31:01;;;;;;;3.90;2.50;;;;;;;2.60;81.82;100916.55;126303;1099;104159;-80
2021/12/18 02:33:31;;;;;;;6.23;2.87;;;;;;;2.58;81.10;100918.14;126335;1099;104153;-79
2021/12/18 02:36:02;;;;;;;6.87;3.13;;;;;;;2.57;81.55;100916.33;126329;1099;104152;-81
2021/12/18 02:38:45;;;;;;;5.33;2.90;;;;;;;2.56;80.88;100924.91;126318;1099;104160;-80
2021/12/18 02:41:26;;;;;;;3.77;2.83;;;;;;;2.54;81.12;100922.20;126348;1099;104178;-80
2021/12/18 02:43:58;;;;;;;4.17;2.40;;;;;;;2.54;81.72;100921.28;126328;1099;104582;-80
2021/12/18 02:46:27;;;;;;;6.70;2.80;;;;;;;2.53;81.21;100925.57;126292;1099;104201;-80
2021/12/18 02:48:59;;;;;;;4.33;2.70;;;;;;;2.53;81.57;100935.05;126324;1099;104366;-80
2021/12/18 02:51:31;;;;;;;6.53;3.00;;;;;;;2.51;81.21;100922.87;126303;1099;104149;-80
2021/12/18 02:54:00;;;;;;;5.93;2.73;;;;;;;2.49;81.27;100929.63;125477;1099;104163;-80
2021/12/18 02:56:29;;;;;;;5.23;2.80;;;;;;;2.49;80.74;100927.04;126296;1099;104160;-80
2021/12/18 02:59:04;;;;;;;7.43;2.80;;;;;;;2.49;81.31;100929.63;126315;1099;104211;-80
2021/12/18 03:01:35;;;;;;;4.07;2.60;;;;;;;2.47;81.16;100927.70;126348;1099;104302;-80
2021/12/18 03:04:13;;;;;;;4.80;2.80;;;;;;;2.46;81.06;100937.17;126326;1099;104149;-80
2021/12/18 03:06:46;;;;;;;7.47;3.10;;;;;;;2.44;81.00;100937.83;126182;1099;104181;-80
2021/12/18 03:09:45;;;;;;;4.67;3.00;;;;;;;2.44;80.36;100945.61;126328;1098;104225;-80
2021/12/18 03:23:27;;;;;;;7.08;3.15;;;;;;;2.40;81.21;100972.97;126315;1099;104156;-80
2021/12/18 03:25:58;;;;;;;8.57;3.30;;;;;;;2.39;80.92;100965.98;126388;1099;104200;-81
2021/12/18 03:28:28;;;;;;;5.87;3.30;;;;;;;2.39;81.09;100976.34;126275;1099;118668;-79
2021/12/18 03:31:00;;;;;;;5.00;2.57;;;;;;;2.39;81.20;100973.75;125293;1102;104332;-80
2021/12/18 03:33:31;;;;;;;4.40;2.90;;;;;;;2.37;80.80;100974.41;125349;1099;104155;-82
2021/12/18 03:36:02;;;;;;;6.00;2.67;;;;;;;2.35;81.33;100982.06;125330;1098;104379;-80
2021/12/18 03:38:30;;;;;;;5.27;2.90;;;;;;;2.34;80.99;100980.28;125280;1099;104188;-80
2021/12/18 03:40:59;;;;;;;5.70;3.20;;;;;;;2.34;80.83;100983.76;125351;1099;104332;-81
2021/12/18 03:43:28;;;;;;;6.67;3.07;;;;;;;2.34;81.00;100990.64;125301;1099;104157;-80
2021/12/18 03:45:56;;;;;;;5.70;3.27;;;;;;;2.34;80.84;100985.45;125342;1099;104268;-80
2021/12/18 03:48:25;;;;;;;4.67;2.70;;;;;;;2.33;81.13;100994.89;125287;1099;104341;-81
2021/12/18 03:50:53;;;;;;;7.27;3.00;;;;;;;2.32;80.57;100999.95;125334;1102;104335;-81
2021/12/18 03:53:25;;;;;;;6.83;2.80;;;;;;;2.31;80.48;101006.83;125322;1099;104414;-80
2021/12/18 03:55:53;;;;;;;5.30;2.83;;;;;;;2.30;80.86;101009.30;125358;1102;104283;-82
2021/12/18 03:58:21;;;;;;;8.00;3.27;;;;;;;2.29;81.16;101002.31;125272;1099;104188;-81
2021/12/18 04:00:50;;;;;;;6.43;3.13;;;;;;;2.28;81.06;101005.70;125303;1099;104434;-80
2021/12/18 04:03:18;;;;;;;6.80;3.23;;;;;;;2.27;80.84;101009.95;126164;1099;105048;-80
2021/12/18 04:05:48;;;;;;;6.50;3.20;;;;;;;2.24;80.56;101014.90;125430;1099;104179;-80
2021/12/18 04:08:17;;;;;;;4.10;2.50;;;;;;;2.22;80.73;101018.17;126272;1098;104344;-80
2021/12/18 04:10:47;;;;;;;7.43;3.30;;;;;;;2.20;80.30;101011.95;126360;1099;104194;-80
2021/12/18 04:13:16;;;;;;;8.00;3.10;;;;;;;2.16;80.88;101027.25;126332;1099;104159;-81
2021/12/18 04:15:45;;;;;;;4.30;2.63;;;;;;;2.14;81.01;101017.58;126370;1099;104142;-81
2021/12/18 04:18:14;;;;;;;7.90;3.20;;;;;;;2.10;80.87;101021.62;126280;1099;104328;-81
2021/12/18 04:20:43;;;;;;;5.23;2.50;;;;;;;2.07;80.59;101026.57;126313;1098;104152;-81
2021/12/18 04:23:17;;;;;;;4.60;2.90;;;;;;;2.03;80.46;101027.10;126351;1098;104150;-81
2021/12/18 04:25:50;;;;;;;3.87;2.70;;;;;;;1.99;81.00;101032.80;126341;1099;104171;-81
2021/12/18 04:28:26;;;;;;;6.43;2.73;;;;;;;1.96;81.02;101033.49;126308;1099;104146;-80
2021/12/18 04:30:58;;;;;;;6.50;3.30;;;;;;;1.93;80.90;101033.25;126352;1099;104297;-80
2021/12/18 04:33:28;;;;;;;6.93;3.27;;;;;;;1.90;80.97;101032.08;126309;1099;104216;-79
2021/12/18 04:35:58;;;;;;;5.87;3.27;;;;;;;1.88;80.58;101038.83;126355;1099;104273;-80
2021/12/18 04:38:27;;;;;;;4.67;2.77;;;;;;;1.88;80.60;101041.42;126219;1099;104144;-80
2021/12/18 04:40:55;;;;;;;6.37;3.13;;;;;;;1.84;80.73;101039.36;126214;1099;104159;-80
2021/12/18 04:43:24;;;;;;;5.07;2.83;;;;;;;1.82;80.85;101034.06;126340;1099;104150;-80
2021/12/18 04:45:52;;;;;;;6.50;3.17;;;;;;;1.80;80.86;101049.47;126224;1099;104382;-80
2021/12/18 04:48:22;;;;;;;5.40;3.37;;;;;;;1.77;80.38;101046.64;126275;1099;104194;-80
2021/12/18 04:50:51;;;;;;;6.00;3.03;;;;;;;1.77;80.91;101048.33;126255;1099;104160;-81
2021/12/18 04:53:20;;;;;;;6.50;3.20;;;;;;;1.75;80.21;101058.56;126358;1099;104171;-81
2021/12/18 04:55:48;;;;;;;7.23;3.17;;;;;;;1.75;80.57;101049.91;126215;1098;105022;-80
2021/12/18 04:58:17;;;;;;;3.83;2.70;;;;;;;1.73;80.96;101054.96;126267;1099;104232;-80
2021/12/18 05:00:47;;;;;;;4.57;2.83;;;;;;;1.75;80.85;101063.73;126214;1099;104280;-81
2021/12/18 05:03:23;;;;;;;5.83;2.93;;;;;;;1.76;80.49;101062.97;126324;1099;104149;-81
2021/12/18 05:05:51;;;;;;;6.60;3.00;;;;;;;1.77;80.36;101072.52;125352;1099;104210;-78
2021/12/18 05:08:20;;;;;;;5.23;2.90;;;;;;;1.78;80.63;101079.51;126269;1099;104165;-79
2021/12/18 05:10:51;;;;;;;5.40;2.63;;;;;;;1.79;80.60;101083.91;126150;1099;104175;-79
2021/12/18 05:13:21;;;;;;;7.03;3.00;;;;;;;1.79;80.64;101073.56;126358;1099;104162;-81
2021/12/18 05:15:51;;;;;;;6.10;2.70;;;;;;;1.78;80.20;101076.92;126321;1099;104166;-81
2021/12/18 05:18:19;;;;;;;6.47;3.17;;;;;;;1.81;80.66;101078.86;126318;1098;104152;-81
2021/12/18 05:20:48;;;;;;;4.97;2.90;;;;;;;1.82;80.72;101080.64;126349;1099;104313;-81
2021/12/18 05:23:19;;;;;;;5.60;2.70;;;;;;;1.83;80.92;101089.34;126174;1098;104248;-82
2021/12/18 05:25:47;;;;;;;4.87;2.60;;;;;;;1.85;80.64;101106.77;126083;1099;104195;-82
2021/12/18 05:28:16;;;;;;;6.47;2.90;;;;;;;1.86;80.68;101094.75;126223;1099;104185;-80
2021/12/18 05:30:45;;;;;;;6.23;2.57;;;;;;;1.86;80.67;101107.70;126183;1099;104162;-81
2021/12/18 05:33:18;;;;;;;7.70;2.70;;;;;;;1.86;80.16;101100.83;126090;1099;104230;-82
2021/12/18 05:35:48;;;;;;;4.70;3.00;;;;;;;1.88;80.52;101111.30;125887;1099;104267;-82
2021/12/18 05:38:17;;;;;;;6.97;2.67;;;;;;;1.90;80.88;101115.83;126069;1099;104178;-80
2021/12/18 05:40:46;;;;;;;7.00;2.77;;;;;;;1.92;80.52;101105.59;126006;1099;104178;-82
2021/12/18 05:43:15;;;;;;;5.00;2.80;;;;;;;1.94;80.50;101112.69;125930;1099;104163;-81
2021/12/18 05:45:45;;;;;;;9.40;3.43;;;;;;;1.97;80.42;101109.45;126058;1099;104277;-81
2021/12/18 05:48:14;;;;;;;4.90;2.80;;;;;;;1.98;80.76;101119.03;126022;1099;104274;-80
2021/12/18 05:50:45;;;;;;;6.73;2.93;;;;;;;2.00;80.29;101120.05;126176;1099;104181;-80
2021/12/18 05:53:14;;;;;;;6.30;2.97;;;;;;;1.99;80.00;101126.00;126257;1099;104181;-81
2021/12/18 05:55:43;;;;;;;4.70;2.50;;;;;;;2.01;79.97;101123.53;126303;1099;104201;-80
2021/12/18 05:58:12;;;;;;;3.60;2.40;;;;;;;2.02;79.66;101143.47;126294;1099;104153;-80
2021/12/18 06:00:41;;;;;;;5.27;2.67;;;;;;;2.03;79.92;101141.00;126268;1099;104213;-80
2021/12/18 06:03:09;;;;;;;4.03;2.10;;;;;;;2.05;79.80;101142.02;126286;1099;104149;-80
2021/12/18 06:05:41;;;;;;;6.00;2.37;;;;;;;2.06;78.91;101151.60;126334;1099;104143;-79
2021/12/18 06:08:12;;;;;;;4.00;2.00;;;;;;;2.07;79.56;101150.83;126396;1099;104274;-80
2021/12/18 06:10:41;;;;;;;5.83;2.70;;;;;;;2.08;78.59;101160.39;126231;1099;104599;-80
2021/12/18 06:13:11;;;;;;;6.47;2.73;;;;;;;2.10;78.27;101165.69;126220;1099;104357;-80
2021/12/18 06:15:39;;;;;;;4.83;2.50;;;;;;;2.11;79.16;101167.51;126202;1099;104146;-82
2021/12/18 06:18:08;;;;;;;13.53;4.60;;;;;;;2.13;78.75;101166.83;126249;1099;104399;-80
2021/12/18 06:20:36;;;;;;;10.63;4.10;;;;;;;2.15;78.18;101179.89;126178;1099;104185;-79
2021/12/18 06:23:05;;;;;;;10.67;4.30;;;;;;;2.15;78.89;101169.54;126315;1099;104301;-79
2021/12/18 06:25:33;;;;;;;6.17;2.87;;;;;;;2.16;78.23;101172.25;126258;1099;104361;-80
2021/12/18 06:28:02;;;;;;;6.77;3.50;;;;;;;2.19;78.92;101175.89;126319;1098;104325;-80
2021/12/18 06:30:31;;;;;;;6.70;3.20;;;;;;;2.19;78.49;101176.78;126278;1099;104335;-80
2021/12/18 06:32:59;;;;;;;6.87;3.40;;;;;;;2.22;78.68;101186.49;126346;1099;104185;-80
2021/12/18 06:35:30;;;;;;;6.07;3.40;;;;;;;2.24;78.44;101190.10;126332;1099;104274;-81
2021/12/18 06:38:05;;;;;;;6.90;3.27;;;;;;;2.24;78.24;101195.28;126348;1099;104290;-80
2021/12/18 06:40:34;;;;;;;7.73;3.50;;;;;;;2.24;78.54;101200.45;126309;1099;104201;-80
2021/12/18 06:43:03;;;;;;;9.33;3.63;;;;;;;2.24;78.62;101196.17;126372;1099;104153;-80
2021/12/18 06:45:32;;;;;;;7.07;3.03;;;;;;;2.25;77.43;101202.28;126277;1099;104823;-80
2021/12/18 06:48:01;;;;;;;8.50;3.47;;;;;;;2.25;78.37;101202.28;126370;1099;104306;-80
2021/12/18 06:50:29;;;;;;;6.70;3.30;;;;;;;2.25;77.99;101204.87;126252;1099;104159;-80
2021/12/18 06:52:58;;;;;;;6.63;2.97;;;;;;;2.27;78.13;101203.30;126329;1099;104211;-79
2021/12/18 06:55:26;;;;;;;6.97;3.60;;;;;;;2.29;77.62;101219.84;126345;1098;104162;-80
2021/12/18 06:57:56;;;;;;;7.50;3.30;;;;;;;2.29;78.23;101209.48;126287;1099;104204;-79
2021/12/18 07:00:25;;;;;;;6.97;3.67;;;;;;;2.30;78.49;101211.31;126252;1098;104227;-81
2021/12/18 07:02:54;;;;;;;5.77;3.40;;;;;;;2.30;78.13;101214.80;126112;1099;107780;-81
2021/12/18 07:05:23;;;;;;;7.07;3.33;;;;;;;2.30;78.08;101209.61;126237;1099;104277;-80
2021/12/18 07:07:52;;;;;;;9.33;3.73;;;;;;;2.33;78.12;101214.14;126281;1099;104277;-80
2021/12/18 07:10:22;;;;;;;8.00;3.40;;;;;;;2.34;78.43;101211.67;126313;1099;104185;-80
2021/12/18 07:12:55;;;;;;;5.87;3.40;;;;;;;2.36;78.20;101216.98;126292;1099;104181;-80
2021/12/18 07:15:23;;;;;;;5.90;3.40;;;;;;;2.38;77.71;101217.10;126311;1098;104147;-80
2021/12/18 07:18:01;;;;;;;5.67;3.10;;;;;;;2.38;77.46;101220.59;126275;1099;104334;-80
2021/12/18 07:20:36;;;;;;;5.12;3.10;;;;;;;2.40;77.84;101219.05;126338;1098;104284;-79
2021/12/18 07:23:08;;;;;;;6.13;3.13;;;;;;;2.41;78.18;101231.19;126273;1099;104207;-80
2021/12/18 07:25:40;;;;;;;6.77;3.40;;;;;;;2.43;76.85;101223.55;126351;1099;104222;-79
2021/12/18 07:28:11;;;;;;;8.30;3.53;;;;;;;2.44;77.50;101223.67;126297;1099;104181;-80
2021/12/18 07:30:42;;;;;;;5.97;3.30;;;;;;;2.44;77.24;101228.84;126337;1099;104126;-80
2021/12/18 07:33:11;;;;;;;8.53;3.57;;;;;;;2.46;78.00;101232.48;126295;1099;104172;-80
2021/12/18 07:35:44;;;;;;;10.77;4.20;;;;;;;2.49;77.14;101236.98;126335;1099;104147;-80
2021/12/18 07:38:16;;;;;;;9.60;4.67;;;;;;;2.50;77.56;101231.93;126283;1099;104309;-80
2021/12/18 07:40:44;;;;;;;6.77;3.73;;;;;;;2.53;76.77;101236.46;126322;1099;104182;-80
2021/12/18 07:43:13;;;;;;;7.33;3.63;;;;;;;2.54;76.73;101234.77;126274;1099;104294;-80
2021/12/18 07:45:43;;;;;;;7.93;3.70;;;;;;;2.57;76.28;101240.19;126356;1099;104162;-81
2021/12/18 07:48:14;;;;;;;6.87;3.70;;;;;;;2.60;76.83;101243.95;126357;1099;104156;-80
2021/12/18 07:50:43;;;;;;;9.03;3.90;;;;;;;2.66;77.54;101243.52;126354;1099;104229;-80
2021/12/18 07:53:12;;;;;;;8.27;3.43;;;;;;;2.69;76.69;101244.65;125367;1099;104224;-79
2021/12/18 07:55:40;;;;;;;7.97;3.83;;;;;;;2.73;77.03;101244.89;126334;1099;104277;-80
2021/12/18 07:58:09;;;;;;;6.23;3.27;;;;;;;2.74;76.31;101246.72;126354;1099;104280;-80
2021/12/18 08:00:38;;;;;;;6.87;3.30;;;;;;;2.75;77.00;101253.72;126338;1099;104149;-80
2021/12/18 08:03:07;;;;;;;11.10;3.50;;;;;;;2.75;76.71;101259.80;126334;1099;105635;-80
2021/12/18 08:05:38;;;;;;;7.80;3.70;;;;;;;2.75;76.26;101261.49;126288;1098;104152;-80
2021/12/18 08:08:07;;;;;;;4.43;2.90;;;;;;;2.75;75.72;101261.49;126347;1099;104159;-80
2021/12/18 08:10:36;;;;;;;5.30;2.90;;;;;;;2.75;76.30;101262.39;126360;1099;104223;-80
2021/12/18 08:13:05;;;;;;;6.20;3.10;;;;;;;2.74;76.96;101257.08;126280;1099;104223;-80
2021/12/18 08:15:36;;;;;;;5.13;3.07;;;;;;;2.73;75.71;101258.78;126349;1098;104156;-79
2021/12/18 08:18:07;;;;;;;5.50;3.57;;;;;;;2.70;75.98;101258.53;126216;1099;104189;-80
2021/12/18 08:20:42;;;;;;;6.10;3.27;;;;;;;2.71;75.71;101278.46;126355;1099;104204;-80
2021/12/18 08:23:13;;;;;;;5.17;3.13;;;;;;;2.67;75.14;101266.06;126305;1099;104175;-79
2021/12/18 08:25:44;;;;;;;3.85;2.70;;;;;;;2.65;75.52;101272.79;126343;1099;104198;-80
2021/12/18 08:28:13;;;;;;;5.17;2.87;;;;;;;2.62;76.21;101273.47;126296;1099;104219;-80
2021/12/18 08:30:42;;;;;;;5.30;3.00;;;;;;;2.59;75.54;101291.36;126316;1099;104595;-79
2021/12/18 08:33:11;;;;;;;5.97;3.50;;;;;;;2.56;76.36;101285.94;126318;1099;104290;-80
2021/12/18 08:35:40;;;;;;;6.37;3.63;;;;;;;2.54;76.45;101286.58;126354;1099;104226;-80
2021/12/18 08:38:08;;;;;;;9.57;3.97;;;;;;;2.49;76.60;101278.44;126324;1099;104160;-80
2021/12/18 08:40:37;;;;;;;7.93;3.70;;;;;;;2.48;75.96;101274.95;126313;1099;104245;-80
2021/12/18 08:43:09;;;;;;;6.40;3.37;;;;;;;2.48;76.62;101269.77;126261;1099;104264;-80
2021/12/18 08:45:41;;;;;;;4.70;3.07;;;;;;;2.50;76.99;101263.02;126257;1099;104197;-81
2021/12/18 08:48:09;;;;;;;7.30;3.80;;;;;;;2.56;76.88;101269.50;126280;1098;104185;-81
2021/12/18 08:50:38;;;;;;;5.97;3.60;;;;;;;2.58;76.29;101270.52;126358;1099;104715;-81
2021/12/18 08:53:09;;;;;;;7.50;3.60;;;;;;;2.60;75.86;101271.53;126327;1099;104313;-81
2021/12/18 08:55:38;;;;;;;10.80;4.73;;;;;;;2.63;75.69;101275.30;126320;1099;104235;-81
2021/12/18 08:58:06;;;;;;;8.40;3.60;;;;;;;2.65;76.60;101272.79;126379;1099;104178;-81
2021/12/18 09:00:35;;;;;;;11.37;4.60;;;;;;;2.67;75.33;101276.43;126324;1099;104149;-80
2021/12/18 09:03:04;;;;;;;15.47;5.30;;;;;;;2.68;75.89;101275.62;126198;1099;104771;-80
2021/12/18 09:05:34;;;;;;;10.93;4.43;;;;;;;2.68;76.32;101271.37;126341;1099;104152;-79
2021/12/18 09:08:03;;;;;;;9.30;4.27;;;;;;;2.69;75.18;101269.67;126288;1099;104644;-79
2021/12/18 09:10:32;;;;;;;8.60;3.87;;;;;;;2.71;75.69;101275.88;126338;1099;104745;-80
2021/12/18 09:13:01;;;;;;;6.13;3.37;;;;;;;2.72;74.75;101272.51;126307;1098;105390;-79
2021/12/18 09:15:32;;;;;;;8.30;3.37;;;;;;;2.73;74.36;101281.17;126353;1099;104146;-79
2021/12/18 09:18:01;;;;;;;6.63;3.20;;;;;;;2.74;73.95;101289.08;126268;1099;104220;-81
2021/12/18 09:20:31;;;;;;;6.30;2.80;;;;;;;2.75;73.65;101293.48;126238;1099;104207;-79
2021/12/18 09:23:00;;;;;;;4.30;2.90;;;;;;;2.77;73.25;101288.42;126353;1099;104172;-80
2021/12/18 09:25:29;;;;;;;5.40;2.57;;;;;;;2.78;72.67;101291.14;126264;1099;104143;-79
2021/12/18 09:27:59;;;;;;;5.90;2.80;;;;;;;2.82;72.97;101290.61;126318;1099;104192;-80
2021/12/18 09:30:27;;;;;;;4.43;2.70;;;;;;;2.85;73.25;101295.11;126346;1099;104229;-80
2021/12/18 09:32:56;;;;;;;7.27;2.97;;;;;;;2.88;73.83;101285.91;126294;1097;104152;-81
2021/12/18 09:35:24;;;;;;;4.70;2.90;;;;;;;2.94;73.45;101297.54;126259;1099;104281;-80
2021/12/18 09:37:54;;;;;;;5.70;3.27;;;;;;;2.94;72.20;101290.66;126308;1099;104204;-79
2021/12/18 09:40:22;;;;;;;5.50;3.23;;;;;;;2.98;72.80;101282.34;126302;1099;104213;-80
2021/12/18 09:42:52;;;;;;;5.53;3.13;;;;;;;2.98;71.97;101300.50;126311;1099;104303;-80
2021/12/18 09:45:24;;;;;;;3.60;2.47;;;;;;;2.99;72.15;101306.58;126253;1099;104219;-79
2021/12/18 09:47:53;;;;;;;4.30;2.63;;;;;;;2.98;71.44;101305.69;126316;1099;104198;-79
2021/12/18 09:50:24;;;;;;;4.97;2.93;;;;;;;2.98;71.56;101304.79;126295;1099;104284;-80
2021/12/18 09:52:53;;;;;;;4.03;2.60;;;;;;;2.96;71.98;101304.67;126363;1099;104153;-80
2021/12/18 09:55:22;;;;;;;5.33;2.60;;;;;;;2.95;71.72;101289.88;126252;1099;104216;-80
2021/12/18 09:57:51;;;;;;;4.33;2.50;;;;;;;2.93;71.78;101295.72;126308;1099;104172;-80
2021/12/18 10:00:24;;;;;;;4.90;2.70;;;;;;;2.89;71.89;101297.17;126272;1099;104226;-79
2021/12/18 10:02:54;;;;;;;5.33;2.60;;;;;;;2.81;70.53;101299.16;126215;1099;104144;-79
2021/12/18 10:05:29;;;;;;;7.17;3.37;;;;;;;2.80;71.96;101297.34;126291;1099;104184;-80
2021/12/18 10:08:11;;;;;;;5.57;2.83;;;;;;;2.78;71.92;101301.51;126304;1099;104364;-79
2021/12/18 10:10:59;;;;;;;8.10;2.93;;;;;;;2.74;72.31;101296.85;126225;1099;104246;-80
2021/12/18 10:13:27;;;;;;;4.73;2.70;;;;;;;2.71;72.16;101304.37;126336;1099;104147;-80
2021/12/18 10:16:11;;;;;;;4.37;2.53;;;;;;;2.67;71.90;101311.02;126278;1099;104191;-79
2021/12/18 10:18:40;;;;;;;4.95;2.90;;;;;;;2.66;72.28;101303.12;126301;1099;104178;-80
2021/12/18 10:21:10;;;;;;;6.30;3.00;;;;;;;2.69;72.29;101293.00;126337;1098;104137;-80
2021/12/18 10:23:45;;;;;;;5.87;2.57;;;;;;;2.71;72.98;101283.65;126324;1099;104280;-80
2021/12/18 10:26:35;;;;;;;4.27;2.20;;;;;;;2.72;71.37;101295.84;126217;1099;104146;-79
2021/12/18 10:29:06;;;;;;;4.90;2.63;;;;;;;2.73;72.26;101291.55;126228;1099;104235;-80
2021/12/18 10:31:42;;;;;;;5.90;2.77;;;;;;;2.76;72.79;101292.72;126299;1099;104143;-80
2021/12/18 10:34:22;;;;;;;8.60;2.80;;;;;;;2.77;72.49;101288.42;126320;1099;104281;-79
2021/12/18 10:37:19;;;;;;;4.53;2.40;;;;;;;2.78;71.40;101293.73;126245;1099;104316;-79
2021/12/18 10:40:02;;;;;;;4.83;2.60;;;;;;;2.81;71.22;101283.61;126304;1099;104277;-80
2021/12/18 10:42:39;;;;;;;7.20;2.90;;;;;;;2.80;70.70;101286.97;126334;1099;104165;-79
2021/12/18 10:45:19;;;;;;;6.30;2.93;;;;;;;2.85;70.96;101288.27;126323;1098;104187;-80
2021/12/18 10:47:58;;;;;;;7.87;3.30;;;;;;;2.89;71.98;101279.03;126303;1099;104271;-80
2021/12/18 10:50:41;;;;;;;5.90;3.13;;;;;;;2.92;71.59;101276.68;126293;1098;104143;-80
2021/12/18 10:53:13;;;;;;;5.77;3.10;;;;;;;2.97;72.03;101277.05;126366;1099;104796;-80
2021/12/18 10:55:48;;;;;;;6.27;3.13;;;;;;;3.01;71.23;101286.88;126283;1099;104277;-79
2021/12/18 10:58:20;;;;;;;6.67;2.97;;;;;;;3.02;71.22;101275.70;126322;1098;104146;-79
2021/12/18 11:00:54;;;;;;;7.47;2.77;;;;;;;3.02;70.04;101283.48;126372;1099;104278;-80
2021/12/18 11:03:30;;;;;;;5.55;3.30;;;;;;;2.98;70.30;101284.94;126305;1098;104162;-80
2021/12/18 11:06:12;;;;;;;5.75;3.15;;;;;;;3.01;70.64;101273.92;126250;1099;104576;-80
2021/12/18 11:09:05;;;;;;;6.90;3.30;;;;;;;3.04;71.27;101284.53;126290;1099;104465;-80
2021/12/18 11:14:27;;;;;;;6.17;3.20;;;;;;;2.95;70.09;101279.52;126198;1099;104284;-80
2021/12/18 11:16:59;;;;;;;5.63;3.00;;;;;;;2.93;70.94;101280.16;126256;1099;103348;-80
2021/12/18 11:19:29;;;;;;;4.43;2.80;;;;;;;2.96;70.61;101277.81;126324;1099;104174;-80
2021/12/18 11:22:03;;;;;;;4.60;2.93;;;;;;;2.91;70.15;101276.56;126225;1099;104284;-79
2021/12/18 11:24:36;;;;;;;6.70;3.10;;;;;;;2.90;70.31;101279.92;126326;1099;104153;-80
2021/12/18 11:27:07;;;;;;;6.03;3.23;;;;;;;2.87;70.59;101284.09;126351;1099;105506;-81
2021/12/18 11:29:44;;;;;;;4.43;2.77;;;;;;;2.87;70.83;101276.31;126316;1099;104171;-80
2021/12/18 11:32:15;;;;;;;3.73;2.20;;;;;;;2.84;69.60;101276.08;126349;1099;104258;-80
2021/12/18 11:34:45;;;;;;;6.23;2.10;;;;;;;2.78;70.14;101280.77;126245;1099;104604;-82
2021/12/18 11:37:27;;;;;;;4.07;2.50;;;;;;;2.71;69.53;101286.23;126097;1098;104198;-81
2021/12/18 11:39:59;;;;;;;9.23;2.40;;;;;;;2.65;69.99;101288.34;126099;1098;104201;-78
2021/12/18 11:42:32;;;;;;;5.40;2.40;;;;;;;2.61;70.68;101286.30;126069;1099;104194;-79
2021/12/18 11:45:03;;;;;;;3.80;1.87;;;;;;;2.55;70.65;101293.59;126049;1099;104201;-79
2021/12/18 11:47:34;;;;;;;3.20;2.03;;;;;;;2.53;70.57;101296.05;126042;1099;104165;-80
2021/12/18 11:50:09;;;;;;;4.50;2.60;;;;;;;2.48;69.95;101295.68;125275;1099;105677;-79
2021/12/18 11:53:02;;;;;;;7.25;2.35;;;;;;;2.44;69.89;101288.43;125279;1099;104230;-80
2021/12/18 11:55:34;;;;;;;4.90;2.20;;;;;;;2.41;70.82;101293.36;125257;1099;104281;-79
2021/12/18 11:58:03;;;;;;;6.57;2.43;;;;;;;2.40;69.89;101291.58;125235;1099;105662;-78
2021/12/18 12:00:44;;;;;;;6.60;2.77;;;;;;;2.40;70.53;101281.22;125299;1099;104174;-79
2021/12/18 12:03:25;;;;;;;7.20;2.60;;;;;;;2.39;70.71;101281.98;125316;1099;104166;-80
2021/12/18 12:05:57;;;;;;;7.07;2.03;;;;;;;2.35;70.36;101282.50;125216;1099;102034;-80
2021/12/18 12:08:37;;;;;;;5.57;2.60;;;;;;;2.32;70.55;101283.19;125693;1099;104162;-80
2021/12/18 12:11:23;;;;;;;7.53;2.70;;;;;;;2.30;70.96;101282.13;126354;1099;104150;-80